sensor_id;sensor_type;location;lat;lon;timestamp;pressure;altitude;pressure_sealevel;temperature;humidity
28181;BME280;15464;50.988;10.318;2023-04-15T00:00:57;98106.06;;;3.65;96.41
28181;BME280;15464;50.988;10.318;2023-04-15T00:03:25;98093.81;;;3.66;96.66
28181;BME280;15464;50.988;10.318;2023-04-15T00:05:52;98090.25;;;3.67;96.60
28181;BME280;15464;50.988;10.318;2023-04-15T00:08:19;98098.13;;;3.67;97.02
28181;BME280;15464;50.988;10.318;2023-04-15T00:10:46;98092.88;;;3.67;97.22
28181;BME280;15464;50.988;10.318;2023-04-15T00:13:13;98085.84;;;3.68;96.69
28181;BME280;15464;50.988;10.318;2023-04-15T00:15:40;98084.06;;;3.68;97.05
28181;BME280;15464;50.988;10.318;2023-04-15T00:18:08;98082.38;;;3.67;96.55
28181;BME280;15464;50.988;10.318;2023-04-15T00:20:34;98078.69;;;3.70;96.83
28181;BME280;15464;50.988;10.318;2023-04-15T00:23:02;98075.97;;;3.71;96.96
28181;BME280;15464;50.988;10.318;2023-04-15T00:25:29;98072.28;;;3.74;96.52
28181;BME280;15464;50.988;10.318;2023-04-15T00:27:56;98071.44;;;3.73;96.39
28181;BME280;15464;50.988;10.318;2023-04-15T00:30:23;98071.44;;;3.73;95.97
28181;BME280;15464;50.988;10.318;2023-04-15T00:32:51;98069.78;;;3.72;96.76
28181;BME280;15464;50.988;10.318;2023-04-15T00:35:18;98073.44;;;3.70;96.06
28181;BME280;15464;50.988;10.318;2023-04-15T00:37:44;98069.03;;;3.70;95.80
28181;BME280;15464;50.988;10.318;2023-04-15T00:40:12;98072.72;;;3.68;96.13
28181;BME280;15464;50.988;10.318;2023-04-15T00:42:39;98071.66;;;3.70;96.04
28181;BME280;15464;50.988;10.318;2023-04-15T00:45:07;98072.50;;;3.71;96.37
28181;BME280;15464;50.988;10.318;2023-04-15T00:47:35;98076.06;;;3.70;96.16
28181;BME280;15464;50.988;10.318;2023-04-15T00:50:03;98069.38;;;3.65;96.39
28181;BME280;15464;50.988;10.318;2023-04-15T00:52:30;98073.78;;;3.65;96.85
28181;BME280;15464;50.988;10.318;2023-04-15T00:54:57;98080.81;;;3.64;96.19
28181;BME280;15464;50.988;10.318;2023-04-15T00:57:25;98071.25;;;3.63;96.34
28181;BME280;15464;50.988;10.318;2023-04-15T00:59:52;98068.75;;;3.62;96.59
28181;BME280;15464;50.988;10.318;2023-04-15T01:02:20;98075.88;;;3.60;96.29
28181;BME280;15464;50.988;10.318;2023-04-15T01:04:48;98070.75;;;3.58;96.52
28181;BME280;15464;50.988;10.318;2023-04-15T01:07:15;98066.59;;;3.56;96.34
28181;BME280;15464;50.988;10.318;2023-04-15T01:09:43;98064.16;;;3.53;96.93
28181;BME280;15464;50.988;10.318;2023-04-15T01:12:12;98062.28;;;3.55;96.82
28181;BME280;15464;50.988;10.318;2023-04-15T01:14:40;98059.75;;;3.53;97.09
28181;BME280;15464;50.988;10.318;2023-04-15T01:17:07;98059.13;;;3.50;98.54
28181;BME280;15464;50.988;10.318;2023-04-15T01:19:37;98046.75;;;3.52;97.60
28181;BME280;15464;50.988;10.318;2023-04-15T01:22:04;98053.06;;;3.49;97.66
28181;BME280;15464;50.988;10.318;2023-04-15T01:24:31;98055.28;;;3.43;99.71
28181;BME280;15464;50.988;10.318;2023-04-15T01:27:00;98050.66;;;3.46;99.78
28181;BME280;15464;50.988;10.318;2023-04-15T01:29:28;98047.19;;;3.46;99.08
28181;BME280;15464;50.988;10.318;2023-04-15T01:31:55;98048.75;;;3.48;99.95
28181;BME280;15464;50.988;10.318;2023-04-15T01:34:22;98043.38;;;3.50;99.64
28181;BME280;15464;50.988;10.318;2023-04-15T01:36:49;98040.66;;;3.51;99.70
28181;BME280;15464;50.988;10.318;2023-04-15T01:39:15;98035.44;;;3.51;99.18
28181;BME280;15464;50.988;10.318;2023-04-15T01:41:42;98029.13;;;3.54;99.14
28181;BME280;15464;50.988;10.318;2023-04-15T01:44:09;98037.75;;;3.56;99.58
28181;BME280;15464;50.988;10.318;2023-04-15T01:46:36;98030.81;;;3.55;99.75
28181;BME280;15464;50.988;10.318;2023-04-15T01:49:03;98033.44;;;3.55;99.89
28181;BME280;15464;50.988;10.318;2023-04-15T01:51:30;98027.56;;;3.51;100.00
28181;BME280;15464;50.988;10.318;2023-04-15T01:53:57;98023.59;;;3.46;100.00
28181;BME280;15464;50.988;10.318;2023-04-15T01:56:23;98029.56;;;3.48;100.00
28181;BME280;15464;50.988;10.318;2023-04-15T01:58:51;98028.28;;;3.53;100.00
28181;BME280;15464;50.988;10.318;2023-04-15T02:01:17;98023.66;;;3.57;100.00
28181;BME280;15464;50.988;10.318;2023-04-15T02:03:47;98014.75;;;3.59;100.00
28181;BME280;15464;50.988;10.318;2023-04-15T02:06:14;98023.22;;;3.63;100.00
28181;BME280;15464;50.988;10.318;2023-04-15T02:08:41;98027.53;;;3.64;100.00
28181;BME280;15464;50.988;10.318;2023-04-15T02:11:08;98025.84;;;3.63;100.00
28181;BME280;15464;50.988;10.318;2023-04-15T02:13:34;98023.94;;;3.65;100.00
28181;BME280;15464;50.988;10.318;2023-04-15T02:16:02;98028.25;;;3.66;100.00
28181;BME280;15464;50.988;10.318;2023-04-15T02:18:29;98035.19;;;3.67;100.00
28181;BME280;15464;50.988;10.318;2023-04-15T02:20:56;98028.03;;;3.69;100.00
28181;BME280;15464;50.988;10.318;2023-04-15T02:23:24;98026.38;;;3.68;99.73
28181;BME280;15464;50.988;10.318;2023-04-15T02:25:51;98029.19;;;3.65;100.00
28181;BME280;15464;50.988;10.318;2023-04-15T02:28:20;98023.84;;;3.67;100.00
28181;BME280;15464;50.988;10.318;2023-04-15T02:30:48;98028.47;;;3.63;100.00
28181;BME280;15464;50.988;10.318;2023-04-15T02:33:19;98029.53;;;3.60;100.00
28181;BME280;15464;50.988;10.318;2023-04-15T02:35:46;98024.50;;;3.57;100.00
28181;BME280;15464;50.988;10.318;2023-04-15T02:38:13;98029.97;;;3.54;100.00
28181;BME280;15464;50.988;10.318;2023-04-15T02:40:42;98027.66;;;3.50;100.00
28181;BME280;15464;50.988;10.318;2023-04-15T02:43:08;98037.09;;;3.52;100.00
28181;BME280;15464;50.988;10.318;2023-04-15T02:45:35;98033.19;;;3.58;100.00
28181;BME280;15464;50.988;10.318;2023-04-15T02:48:02;98033.94;;;3.60;100.00
28181;BME280;15464;50.988;10.318;2023-04-15T02:50:32;98032.06;;;3.62;100.00
28181;BME280;15464;50.988;10.318;2023-04-15T02:52:59;98029.53;;;3.60;100.00
28181;BME280;15464;50.988;10.318;2023-04-15T02:55:27;98037.06;;;3.65;100.00
28181;BME280;15464;50.988;10.318;2023-04-15T02:57:54;98024.91;;;3.64;100.00
28181;BME280;15464;50.988;10.318;2023-04-15T03:00:21;98028.03;;;3.69;100.00
28181;BME280;15464;50.988;10.318;2023-04-15T03:02:51;98031.81;;;3.65;100.00
28181;BME280;15464;50.988;10.318;2023-04-15T03:05:22;98035.63;;;3.61;100.00
28181;BME280;15464;50.988;10.318;2023-04-15T03:07:52;98036.31;;;3.63;100.00
28181;BME280;15464;50.988;10.318;2023-04-15T03:10:19;98041.25;;;3.68;100.00
28181;BME280;15464;50.988;10.318;2023-04-15T03:12:47;98038.31;;;3.72;100.00
28181;BME280;15464;50.988;10.318;2023-04-15T03:15:14;98035.69;;;3.72;100.00
28181;BME280;15464;50.988;10.318;2023-04-15T03:17:41;98035.19;;;3.67;100.00
28181;BME280;15464;50.988;10.318;2023-04-15T03:20:07;98040.19;;;3.70;100.00
28181;BME280;15464;50.988;10.318;2023-04-15T03:22:35;98038.31;;;3.72;100.00
28181;BME280;15464;50.988;10.318;2023-04-15T03:25:01;98032.13;;;3.73;100.00
28181;BME280;15464;50.988;10.318;2023-04-15T03:27:28;98029.69;;;3.70;100.00
28181;BME280;15464;50.988;10.318;2023-04-15T03:29:54;98027.06;;;3.70;100.00
28181;BME280;15464;50.988;10.318;2023-04-15T03:32:22;98025.09;;;3.74;100.00
28181;BME280;15464;50.988;10.318;2023-04-15T03:34:49;98025.09;;;3.74;100.00
28181;BME280;15464;50.988;10.318;2023-04-15T03:37:15;98024.00;;;3.76;100.00
28181;BME280;15464;50.988;10.318;2023-04-15T03:39:42;98026.75;;;3.75;100.00
28181;BME280;15464;50.988;10.318;2023-04-15T03:42:08;98022.97;;;3.79;100.00
28181;BME280;15464;50.988;10.318;2023-04-15T03:44:35;98022.72;;;3.82;100.00
28181;BME280;15464;50.988;10.318;2023-04-15T03:47:02;98019.16;;;3.83;100.00
28181;BME280;15464;50.988;10.318;2023-04-15T03:49:29;98025.47;;;3.80;100.00
28181;BME280;15464;50.988;10.318;2023-04-15T03:51:55;98020.22;;;3.80;100.00
28181;BME280;15464;50.988;10.318;2023-04-15T03:54:22;98019.41;;;3.80;100.00
28181;BME280;15464;50.988;10.318;2023-04-15T03:56:49;98022.97;;;3.79;100.00
28181;BME280;15464;50.988;10.318;2023-04-15T03:59:16;98023.81;;;3.79;100.00
28181;BME280;15464;50.988;10.318;2023-04-15T04:01:42;98022.22;;;3.77;100.00
28181;BME280;15464;50.988;10.318;2023-04-15T04:04:09;98022.31;;;3.75;100.00
28181;BME280;15464;50.988;10.318;2023-04-15T04:06:36;98025.69;;;3.77;100.00
28181;BME280;15464;50.988;10.318;2023-04-15T04:09:03;98025.47;;;3.80;100.00
28181;BME280;15464;50.988;10.318;2023-04-15T04:11:29;98016.44;;;3.84;100.00
28181;BME280;15464;50.988;10.318;2023-04-15T04:13:57;98009.28;;;3.86;100.00
28181;BME280;15464;50.988;10.318;2023-04-15T04:16:23;98014.31;;;3.89;100.00
28181;BME280;15464;50.988;10.318;2023-04-15T04:18:50;98010.53;;;3.93;100.00
28181;BME280;15464;50.988;10.318;2023-04-15T04:21:17;98005.88;;;3.97;100.00
28181;BME280;15464;50.988;10.318;2023-04-15T04:23:44;98010.66;;;4.03;100.00
28181;BME280;15464;50.988;10.318;2023-04-15T04:26:11;98017.59;;;4.04;100.00
28181;BME280;15464;50.988;10.318;2023-04-15T04:28:37;98018.19;;;4.07;100.00
28181;BME280;15464;50.988;10.318;2023-04-15T04:31:06;98027.00;;;4.06;100.00
28181;BME280;15464;50.988;10.318;2023-04-15T04:33:33;98026.06;;;4.07;100.00
28181;BME280;15464;50.988;10.318;2023-04-15T04:36:00;98014.63;;;4.09;100.00
28181;BME280;15464;50.988;10.318;2023-04-15T04:38:26;98019.66;;;4.12;100.00
28181;BME280;15464;50.988;10.318;2023-04-15T04:40:53;98018.47;;;4.16;100.00
28181;BME280;15464;50.988;10.318;2023-04-15T04:43:20;98017.91;;;4.23;100.00
28181;BME280;15464;50.988;10.318;2023-04-15T04:45:47;98019.97;;;4.31;100.00
28181;BME280;15464;50.988;10.318;2023-04-15T04:48:13;98016.75;;;4.38;100.00
28181;BME280;15464;50.988;10.318;2023-04-15T04:50:40;98015.22;;;4.47;100.00
28181;BME280;15464;50.988;10.318;2023-04-15T04:53:07;98014.66;;;4.55;100.00
28181;BME280;15464;50.988;10.318;2023-04-15T04:55:34;98014.28;;;4.59;100.00
28181;BME280;15464;50.988;10.318;2023-04-15T04:58:02;98016.47;;;4.65;100.00
28181;BME280;15464;50.988;10.318;2023-04-15T05:00:29;98016.09;;;4.70;100.00
28181;BME280;15464;50.988;10.318;2023-04-15T05:02:55;98010.25;;;4.77;100.00
28181;BME280;15464;50.988;10.318;2023-04-15T05:05:22;98013.63;;;4.79;100.00
28181;BME280;15464;50.988;10.318;2023-04-15T05:07:49;98015.03;;;4.83;100.00
28181;BME280;15464;50.988;10.318;2023-04-15T05:10:16;98021.72;;;4.87;100.00
28181;BME280;15464;50.988;10.318;2023-04-15T05:12:43;98018.88;;;4.91;100.00
28181;BME280;15464;50.988;10.318;2023-04-15T05:15:10;98029.13;;;4.94;100.00
28181;BME280;15464;50.988;10.318;2023-04-15T05:17:37;98017.56;;;4.96;100.00
28181;BME280;15464;50.988;10.318;2023-04-15T05:20:04;98009.56;;;4.98;100.00
28181;BME280;15464;50.988;10.318;2023-04-15T05:22:31;98018.16;;;5.00;100.00
28181;BME280;15464;50.988;10.318;2023-04-15T05:24:58;98019.59;;;5.04;100.00
28181;BME280;15464;50.988;10.318;2023-04-15T05:27:25;98015.66;;;5.09;100.00
28181;BME280;15464;50.988;10.318;2023-04-15T05:29:51;98014.59;;;5.12;100.00
28181;BME280;15464;50.988;10.318;2023-04-15T05:32:18;98010.97;;;5.13;100.00
28181;BME280;15464;50.988;10.318;2023-04-15T05:34:45;98016.00;;;5.16;100.00
28181;BME280;15464;50.988;10.318;2023-04-15T05:37:12;98013.13;;;5.19;100.00
28181;BME280;15464;50.988;10.318;2023-04-15T05:39:39;98011.97;;;5.23;100.00
28181;BME280;15464;50.988;10.318;2023-04-15T05:42:05;98019.47;;;5.27;100.00
28181;BME280;15464;50.988;10.318;2023-04-15T05:44:33;98022.94;;;5.28;100.00
28181;BME280;15464;50.988;10.318;2023-04-15T05:46:59;98013.84;;;5.32;100.00
28181;BME280;15464;50.988;10.318;2023-04-15T05:49:26;98020.78;;;5.33;100.00
28181;BME280;15464;50.988;10.318;2023-04-15T05:51:53;98023.19;;;5.36;100.00
28181;BME280;15464;50.988;10.318;2023-04-15T05:54:19;98009.09;;;5.37;100.00
28181;BME280;15464;50.988;10.318;2023-04-15T05:56:48;98018.16;;;5.33;100.00
28181;BME280;15464;50.988;10.318;2023-04-15T05:59:15;98018.63;;;5.38;100.00
28181;BME280;15464;50.988;10.318;2023-04-15T06:01:42;98012.44;;;5.28;100.00
28181;BME280;15464;50.988;10.318;2023-04-15T06:04:09;98008.22;;;5.25;100.00
28181;BME280;15464;50.988;10.318;2023-04-15T06:06:37;98006.91;;;5.31;100.00
28181;BME280;15464;50.988;10.318;2023-04-15T06:09:04;98008.47;;;5.34;100.00
28181;BME280;15464;50.988;10.318;2023-04-15T06:11:30;98015.16;;;5.38;100.00
28181;BME280;15464;50.988;10.318;2023-04-15T06:13:57;98016.97;;;5.37;100.00
28181;BME280;15464;50.988;10.318;2023-04-15T06:16:24;98019.34;;;5.40;100.00
28181;BME280;15464;50.988;10.318;2023-04-15T06:18:50;98016.72;;;5.40;100.00
28181;BME280;15464;50.988;10.318;2023-04-15T06:21:17;98016.22;;;5.46;100.00
28181;BME280;15464;50.988;10.318;2023-04-15T06:23:44;98013.22;;;5.51;100.00
28181;BME280;15464;50.988;10.318;2023-04-15T06:26:11;98015.50;;;5.55;100.00
28181;BME280;15464;50.988;10.318;2023-04-15T06:28:37;98016.91;;;5.59;100.00
28181;BME280;15464;50.988;10.318;2023-04-15T06:31:04;98011.53;;;5.61;100.00
28181;BME280;15464;50.988;10.318;2023-04-15T06:33:31;98017.66;;;5.61;100.00
28181;BME280;15464;50.988;10.318;2023-04-15T06:35:57;98015.47;;;5.66;100.00
28181;BME280;15464;50.988;10.318;2023-04-15T06:38:24;98015.34;;;5.68;100.00
28181;BME280;15464;50.988;10.318;2023-04-15T06:40:51;98024.78;;;5.71;100.00
28181;BME280;15464;50.988;10.318;2023-04-15T06:43:17;98027.88;;;5.76;100.00
28181;BME280;15464;50.988;10.318;2023-04-15T06:45:45;98022.38;;;5.79;100.00
28181;BME280;15464;50.988;10.318;2023-04-15T06:48:11;98016.16;;;5.80;100.00
28181;BME280;15464;50.988;10.318;2023-04-15T06:50:38;98016.84;;;5.82;100.00
28181;BME280;15464;50.988;10.318;2023-04-15T06:53:06;98020.94;;;5.86;100.00
28181;BME280;15464;50.988;10.318;2023-04-15T06:55:32;98014.25;;;5.71;100.00
28181;BME280;15464;50.988;10.318;2023-04-15T06:57:59;98014.25;;;5.71;100.00
28181;BME280;15464;50.988;10.318;2023-04-15T07:00:26;98021.19;;;5.72;100.00
28181;BME280;15464;50.988;10.318;2023-04-15T07:02:54;98019.53;;;5.71;100.00
28181;BME280;15464;50.988;10.318;2023-04-15T07:05:21;98018.44;;;5.73;100.00
28181;BME280;15464;50.988;10.318;2023-04-15T07:07:48;98018.06;;;5.78;100.00
28181;BME280;15464;50.988;10.318;2023-04-15T07:10:15;98017.97;;;5.79;100.00
28181;BME280;15464;50.988;10.318;2023-04-15T07:12:42;98010.91;;;5.80;100.00
28181;BME280;15464;50.988;10.318;2023-04-15T07:15:09;98012.19;;;5.85;100.00
28181;BME280;15464;50.988;10.318;2023-04-15T07:17:36;98013.88;;;5.86;100.00
28181;BME280;15464;50.988;10.318;2023-04-15T07:20:03;98013.75;;;5.88;100.00
28181;BME280;15464;50.988;10.318;2023-04-15T07:22:30;98021.88;;;5.85;100.00
28181;BME280;15464;50.988;10.318;2023-04-15T07:24:57;98023.31;;;5.89;100.00
28181;BME280;15464;50.988;10.318;2023-04-15T07:27:24;98024.78;;;5.93;100.00
28181;BME280;15464;50.988;10.318;2023-04-15T07:29:51;98024.50;;;5.96;100.00
28181;BME280;15464;50.988;10.318;2023-04-15T07:32:18;98027.84;;;5.98;100.00
28181;BME280;15464;50.988;10.318;2023-04-15T07:34:45;98033.81;;;6.00;100.00
28181;BME280;15464;50.988;10.318;2023-04-15T07:37:12;98026.41;;;5.94;100.00
28181;BME280;15464;50.988;10.318;2023-04-15T07:39:39;98025.84;;;5.90;100.00
28181;BME280;15464;50.988;10.318;2023-04-15T07:42:05;98027.03;;;5.97;100.00
28181;BME280;15464;50.988;10.318;2023-04-15T07:44:32;98027.75;;;5.99;100.00
28181;BME280;15464;50.988;10.318;2023-04-15T07:46:59;98037.44;;;5.99;100.00
28181;BME280;15464;50.988;10.318;2023-04-15T07:49:26;98033.69;;;6.01;100.00
28181;BME280;15464;50.988;10.318;2023-04-15T07:51:52;98031.06;;;6.01;100.00
28181;BME280;15464;50.988;10.318;2023-04-15T07:54:19;98028.09;;;5.95;100.00
28181;BME280;15464;50.988;10.318;2023-04-15T07:56:46;98027.84;;;5.98;100.00
28181;BME280;15464;50.988;10.318;2023-04-15T07:59:13;98027.13;;;5.96;100.00
28181;BME280;15464;50.988;10.318;2023-04-15T08:01:40;98022.59;;;5.98;100.00
28181;BME280;15464;50.988;10.318;2023-04-15T08:04:07;98023.28;;;6.00;100.00
28181;BME280;15464;50.988;10.318;2023-04-15T08:06:34;98027.41;;;5.93;100.00
28181;BME280;15464;50.988;10.318;2023-04-15T08:09:02;98034.81;;;5.99;100.00
28181;BME280;15464;50.988;10.318;2023-04-15T08:11:29;98028.56;;;6.00;100.00
28181;BME280;15464;50.988;10.318;2023-04-15T08:13:56;98026.91;;;5.99;100.00
28181;BME280;15464;50.988;10.318;2023-04-15T08:16:24;98033.34;;;5.95;100.00
28181;BME280;15464;50.988;10.318;2023-04-15T08:18:54;98038.13;;;6.01;100.00
28181;BME280;15464;50.988;10.318;2023-04-15T08:21:21;98038.56;;;6.06;100.00
28181;BME280;15464;50.988;10.318;2023-04-15T08:23:50;98039.06;;;6.11;100.00
28181;BME280;15464;50.988;10.318;2023-04-15T08:26:18;98035.59;;;6.11;100.00
28181;BME280;15464;50.988;10.318;2023-04-15T08:28:45;98045.06;;;6.02;100.00
28181;BME280;15464;50.988;10.318;2023-04-15T08:31:13;98035.03;;;5.96;100.00
28181;BME280;15464;50.988;10.318;2023-04-15T08:33:40;98044.09;;;6.03;100.00
28181;BME280;15464;50.988;10.318;2023-04-15T08:36:07;98040.97;;;6.09;100.00
28181;BME280;15464;50.988;10.318;2023-04-15T08:38:35;98038.69;;;6.16;100.00
28181;BME280;15464;50.988;10.318;2023-04-15T08:41:17;98047.16;;;6.19;100.00
28181;BME280;15464;50.988;10.318;2023-04-15T08:43:52;98051.13;;;6.14;100.00
28181;BME280;15464;50.988;10.318;2023-04-15T08:46:20;98050.09;;;6.05;100.00
28181;BME280;15464;50.988;10.318;2023-04-15T08:48:47;98050.22;;;6.03;100.00
28181;BME280;15464;50.988;10.318;2023-04-15T08:51:16;98051.13;;;6.14;100.00
28181;BME280;15464;50.988;10.318;2023-04-15T08:53:43;98052.91;;;6.13;100.00
28181;BME280;15464;50.988;10.318;2023-04-15T08:56:13;98058.19;;;6.13;100.00
28181;BME280;15464;50.988;10.318;2023-04-15T08:58:43;98052.41;;;6.19;100.00
28181;BME280;15464;50.988;10.318;2023-04-15T09:01:11;98047.19;;;6.08;100.00
28181;BME280;15464;50.988;10.318;2023-04-15T09:03:39;98053.41;;;6.18;100.00
28181;BME280;15464;50.988;10.318;2023-04-15T09:06:06;98050.78;;;6.18;100.00
28181;BME280;15464;50.988;10.318;2023-04-15T09:08:33;98056.84;;;6.19;100.00
28181;BME280;15464;50.988;10.318;2023-04-15T09:11:03;98062.44;;;6.25;100.00
28181;BME280;15464;50.988;10.318;2023-04-15T09:13:30;98062.66;;;6.33;100.00
28181;BME280;15464;50.988;10.318;2023-04-15T09:15:56;98064.22;;;6.36;100.00
28181;BME280;15464;50.988;10.318;2023-04-15T09:18:31;98072.69;;;6.39;100.00
28181;BME280;15464;50.988;10.318;2023-04-15T09:21:13;98076.63;;;6.45;100.00
28181;BME280;15464;50.988;10.318;2023-04-15T09:26:35;98081.75;;;6.46;100.00
28181;BME280;15464;50.988;10.318;2023-04-15T09:29:07;98081.66;;;6.48;100.00
28181;BME280;15464;50.988;10.318;2023-04-15T09:31:35;98089.28;;;6.51;100.00
28181;BME280;15464;50.988;10.318;2023-04-15T09:34:02;98081.03;;;6.56;100.00
28181;BME280;15464;50.988;10.318;2023-04-15T09:36:37;98085.56;;;6.54;100.00
28181;BME280;15464;50.988;10.318;2023-04-15T09:39:07;98081.81;;;6.56;100.00
28181;BME280;15464;50.988;10.318;2023-04-15T09:41:33;98081.97;;;6.55;100.00
28181;BME280;15464;50.988;10.318;2023-04-15T09:44:00;98078.41;;;6.44;100.00
28181;BME280;15464;50.988;10.318;2023-04-15T09:46:40;98076.25;;;6.50;100.00
28181;BME280;15464;50.988;10.318;2023-04-15T09:49:09;98083.22;;;6.39;100.00
28181;BME280;15464;50.988;10.318;2023-04-15T09:51:36;98093.13;;;6.47;100.00
28181;BME280;15464;50.988;10.318;2023-04-15T09:54:04;98088.44;;;6.51;100.00
28181;BME280;15464;50.988;10.318;2023-04-15T09:56:33;98083.88;;;6.53;100.00
28181;BME280;15464;50.988;10.318;2023-04-15T09:59:00;98091.91;;;6.51;100.00
28181;BME280;15464;50.988;10.318;2023-04-15T10:01:27;98090.38;;;6.48;100.00
28181;BME280;15464;50.988;10.318;2023-04-15T10:03:56;98098.41;;;6.47;100.00
28181;BME280;15464;50.988;10.318;2023-04-15T10:06:25;98098.75;;;6.54;100.00
28181;BME280;15464;50.988;10.318;2023-04-15T10:08:53;98107.81;;;6.61;100.00
28181;BME280;15464;50.988;10.318;2023-04-15T10:11:21;98105.50;;;6.67;100.00
28181;BME280;15464;50.988;10.318;2023-04-15T10:13:50;98114.69;;;6.73;100.00
28181;BME280;15464;50.988;10.318;2023-04-15T10:16:18;98112.50;;;6.78;100.00
28181;BME280;15464;50.988;10.318;2023-04-15T10:18:54;98112.06;;;6.73;100.00
28181;BME280;15464;50.988;10.318;2023-04-15T10:21:21;98121.13;;;6.80;100.00
28181;BME280;15464;50.988;10.318;2023-04-15T10:23:49;98121.13;;;6.80;100.00
28181;BME280;15464;50.988;10.318;2023-04-15T10:26:17;98126.66;;;6.77;100.00
28181;BME280;15464;50.988;10.318;2023-04-15T10:28:44;98118.34;;;6.81;100.00
28181;BME280;15464;50.988;10.318;2023-04-15T10:31:12;98120.88;;;6.83;100.00
28181;BME280;15464;50.988;10.318;2023-04-15T10:33:43;98120.31;;;6.79;100.00
28181;BME280;15464;50.988;10.318;2023-04-15T10:36:10;98118.50;;;6.80;100.00
28181;BME280;15464;50.988;10.318;2023-04-15T10:38:41;98122.59;;;6.73;100.00
28181;BME280;15464;50.988;10.318;2023-04-15T10:41:25;98128.56;;;6.75;100.00
28181;BME280;15464;50.988;10.318;2023-04-15T10:44:03;98129.72;;;6.82;100.00
28181;BME280;15464;50.988;10.318;2023-04-15T10:49:09;98126.97;;;6.83;100.00
28181;BME280;15464;50.988;10.318;2023-04-15T10:51:38;98128.38;;;6.87;100.00
28181;BME280;15464;50.988;10.318;2023-04-15T10:54:15;98136.63;;;6.94;100.00
28181;BME280;15464;50.988;10.318;2023-04-15T10:56:51;98139.56;;;7.01;100.00
28181;BME280;15464;50.988;10.318;2023-04-15T10:59:17;98139.91;;;7.07;100.00
28181;BME280;15464;50.988;10.318;2023-04-15T11:01:55;98138.81;;;7.10;100.00
28181;BME280;15464;50.988;10.318;2023-04-15T11:04:57;98144.94;;;7.10;100.00
28181;BME280;15464;50.988;10.318;2023-04-15T11:07:37;98148.97;;;7.14;100.00
28181;BME280;15464;50.988;10.318;2023-04-15T11:12:43;98154.44;;;7.02;100.00
28181;BME280;15464;50.988;10.318;2023-04-15T11:15:29;98156.22;;;7.01;100.00
28181;BME280;15464;50.988;10.318;2023-04-15T11:17:56;98153.47;;;7.03;100.00
28181;BME280;15464;50.988;10.318;2023-04-15T11:20:24;98150.22;;;7.10;100.00
28181;BME280;15464;50.988;10.318;2023-04-15T11:22:52;98151.88;;;7.11;100.00
28181;BME280;15464;50.988;10.318;2023-04-15T11:25:40;98150.53;;;7.17;100.00
28181;BME280;15464;50.988;10.318;2023-04-15T11:28:07;98147.25;;;7.24;100.00
28181;BME280;15464;50.988;10.318;2023-04-15T11:30:35;98147.09;;;7.26;100.00
28181;BME280;15464;50.988;10.318;2023-04-15T11:33:08;98149.88;;;7.24;100.00
28181;BME280;15464;50.988;10.318;2023-04-15T11:35:35;98145.81;;;7.20;100.00
28181;BME280;15464;50.988;10.318;2023-04-15T11:38:08;98149.88;;;7.24;100.00
28181;BME280;15464;50.988;10.318;2023-04-15T11:40:36;98148.66;;;7.28;100.00
28181;BME280;15464;50.988;10.318;2023-04-15T11:43:08;98153.59;;;7.22;100.00
28181;BME280;15464;50.988;10.318;2023-04-15T11:45:37;98154.50;;;7.32;100.00
28181;BME280;15464;50.988;10.318;2023-04-15T11:48:08;98155.22;;;7.34;100.00
28181;BME280;15464;50.988;10.318;2023-04-15T11:50:36;98149.81;;;7.36;100.00
28181;BME280;15464;50.988;10.318;2023-04-15T11:53:07;98157.00;;;7.34;100.00
28181;BME280;15464;50.988;10.318;2023-04-15T11:55:51;98160.47;;;7.34;100.00
28181;BME280;15464;50.988;10.318;2023-04-15T11:58:24;98170.59;;;7.29;100.00
28181;BME280;15464;50.988;10.318;2023-04-15T12:00:59;98175.28;;;7.25;100.00
28181;BME280;15464;50.988;10.318;2023-04-15T12:03:30;98176.00;;;7.27;100.00
28181;BME280;15464;50.988;10.318;2023-04-15T12:06:14;98174.44;;;7.25;100.00
28181;BME280;15464;50.988;10.318;2023-04-15T12:09:01;98181.91;;;7.20;100.00
28181;BME280;15464;50.988;10.318;2023-04-15T12:14:08;98189.44;;;7.24;100.00
28181;BME280;15464;50.988;10.318;2023-04-15T12:16:56;98183.47;;;7.22;100.00
28181;BME280;15464;50.988;10.318;2023-04-15T12:19:35;98189.19;;;7.27;100.00
28181;BME280;15464;50.988;10.318;2023-04-15T12:22:12;98194.41;;;7.18;100.00
28181;BME280;15464;50.988;10.318;2023-04-15T12:24:41;98193.56;;;7.17;100.00
28181;BME280;15464;50.988;10.318;2023-04-15T12:27:14;98193.06;;;7.23;100.00
28181;BME280;15464;50.988;10.318;2023-04-15T12:29:41;98195.03;;;7.31;100.00
28181;BME280;15464;50.988;10.318;2023-04-15T12:32:13;98205.72;;;7.29;100.00
28181;BME280;15464;50.988;10.318;2023-04-15T12:34:49;98210.72;;;7.33;100.00
28181;BME280;15464;50.988;10.318;2023-04-15T12:37:16;98207.41;;;7.31;100.00
28181;BME280;15464;50.988;10.318;2023-04-15T12:39:45;98211.88;;;7.40;100.00
28181;BME280;15464;50.988;10.318;2023-04-15T12:42:15;98209.53;;;7.37;100.00
28181;BME280;15464;50.988;10.318;2023-04-15T12:44:42;98209.75;;;7.34;100.00
28181;BME280;15464;50.988;10.318;2023-04-15T12:47:10;98218.13;;;7.39;100.00
28181;BME280;15464;50.988;10.318;2023-04-15T12:49:37;98216.97;;;7.32;100.00
28181;BME280;15464;50.988;10.318;2023-04-15T12:52:05;98224.84;;;7.43;100.00
28181;BME280;15464;50.988;10.318;2023-04-15T12:54:32;98223.31;;;7.50;100.00
28181;BME280;15464;50.988;10.318;2023-04-15T12:56:59;98234.91;;;7.58;100.00
28181;BME280;15464;50.988;10.318;2023-04-15T12:59:27;98234.09;;;7.58;100.00
28181;BME280;15464;50.988;10.318;2023-04-15T13:04:28;98242.28;;;7.55;100.00
28181;BME280;15464;50.988;10.318;2023-04-15T13:06:56;98239.63;;;7.55;100.00
28181;BME280;15464;50.988;10.318;2023-04-15T13:09:23;98239.34;;;7.58;100.00
28181;BME280;15464;50.988;10.318;2023-04-15T13:11:50;98251.06;;;7.65;100.00